Time;durP1;ratioP1;P1;durP2;ratioP2;P2;SDS_P1;SDS_P2;PMS_P1;PMS_P2;Temp;Humidity;BMP_temperature;BMP_pressure;BME280_temperature;BME280_humidity;BME280_pressure;Samples;Min_cycle;Max_cycle;Signal;HPM_P1;HPM_P2
2022/01/27 00:02:55;;;;;;;;;;;-4.20;82.60;;;-5.83;78.41;96882.97;4119747;34;20209;-87
2022/01/27 00:05:27;;;;;;;;;;;-4.20;82.50;;;-5.83;78.65;96882.97;4119563;34;20204;-88
2022/01/27 00:08:09;;;;;;;;;;;-4.20;82.50;;;-5.83;78.78;96898.97;4096142;34;20195;-87
2022/01/27 00:13:30;;;;;;;;;;;-4.20;82.50;;;-5.82;78.59;96900.66;4087863;34;19903;-87
2022/01/27 00:16:12;;;;;;;;;;;-4.20;82.50;;;-5.86;78.69;96889.44;4087214;34;19903;-87
2022/01/27 00:18:42;;;;;;;;;;;-4.20;82.50;;;-5.83;78.58;96896.28;4110043;34;20220;-87
2022/01/27 00:21:11;;;;;;;;;;;-4.20;82.50;;;-5.82;78.74;96895.31;4066428;34;20194;-87
2022/01/27 00:23:41;;;;;;;;;;;-4.20;82.60;;;-5.82;78.75;96900.66;4067798;34;20111;-87
2022/01/27 00:26:11;;;;;;;;;;;-4.20;82.50;;;-5.86;78.68;96895.59;4111464;34;19904;-87
2022/01/27 00:28:40;;;;;;;;;;;-4.20;82.60;;;-5.83;78.92;96899.81;4102336;34;19910;-87
2022/01/27 00:31:08;;;;;;;;;;;-4.20;82.60;;;-5.86;78.85;96900.94;4093974;34;20538;-87
2022/01/27 00:33:37;;;;;;;;;;;-4.20;82.50;;;-5.83;78.73;96902.50;4093730;34;20204;-87
2022/01/27 00:36:07;;;;;;;;;;;-4.20;82.50;;;-5.83;79.02;96891.81;4093280;34;20226;-87
2022/01/27 00:38:36;;;;;;;;;;;-4.20;82.50;;;-5.85;78.72;96897.28;4116429;34;19903;-87
2022/01/27 00:41:04;;;;;;;;;;;-4.20;82.50;;;-5.83;78.72;96904.28;4115435;34;20516;-88
2022/01/27 00:43:33;;;;;;;;;;;-4.20;82.50;;;-5.84;78.74;96903.47;4115731;34;20070;-87
2022/01/27 00:46:01;;;;;;;;;;;-4.20;82.50;;;-5.82;78.85;96905.97;4092409;34;20414;-88
2022/01/27 00:48:30;;;;;;;;;;;-4.20;82.50;;;-5.83;78.84;96904.28;4113931;34;20237;-87
2022/01/27 00:51:01;;;;;;;;;;;-4.20;82.50;;;-5.82;78.60;96912.16;4090557;34;19904;-87
2022/01/27 00:53:40;;;;;;;;;;;-4.20;82.40;;;-5.82;78.75;96911.31;4113218;34;19903;-88
2022/01/27 00:56:18;;;;;;;;;;;-4.20;82.40;;;-5.82;78.71;96901.50;4089794;34;20191;-87
2022/01/27 00:58:55;;;;;;;;;;;-4.20;82.40;;;-5.81;78.22;96902.31;4091105;34;20206;-87
2022/01/27 01:01:29;;;;;;;;;;;-4.20;82.50;;;-5.85;78.67;96899.94;4113391;34;20210;-88
2022/01/27 01:04:01;;;;;;;;;;;-4.20;82.40;;;-5.82;78.63;96900.66;4091297;34;20201;-87
2022/01/27 01:06:40;;;;;;;;;;;-4.20;82.40;;;-5.81;78.70;96899.66;4108522;34;20341;-88
2022/01/27 01:15:10;;;;;;;;;;;-4.20;82.40;;;-5.82;78.70;96897.97;4040560;34;20031;-87
2022/01/27 01:17:52;;;;;;;;;;;-4.20;82.50;;;-5.81;78.66;96902.31;4086431;34;20270;-87
2022/01/27 01:20:32;;;;;;;;;;;-4.20;82.40;;;-5.82;78.72;96897.97;4114520;34;20230;-87
2022/01/27 01:31:43;;;;;;;;;;;-4.20;82.40;;;-5.82;78.73;96887.31;4091904;34;20217;-87
2022/01/27 01:34:15;;;;;;;;;;;-4.20;82.40;;;-5.82;78.94;96888.16;4115214;34;20225;-87
2022/01/27 01:36:53;;;;;;;;;;;-4.20;82.40;;;-5.82;78.52;96879.31;4095627;34;20195;-87
2022/01/27 01:39:22;;;;;;;;;;;-4.20;82.40;;;-5.82;78.54;96874.84;4095158;34;20155;-87
2022/01/27 01:41:52;;;;;;;;;;;-4.20;82.40;;;-5.81;79.00;96881.00;4117659;34;19910;-87
2022/01/27 01:44:20;;;;;;;;;;;-4.20;82.40;;;-5.82;78.90;96876.66;4117854;34;20058;-87
2022/01/27 01:46:49;;;;;;;;;;;-4.20;82.40;;;-5.80;78.84;96877.34;4116892;34;20225;-88
2022/01/27 01:49:17;;;;;;;;;;;-4.20;82.50;;;-5.85;78.85;96865.28;4095086;34;19903;-87
2022/01/27 01:51:46;;;;;;;;;;;-4.20;82.50;;;-5.81;78.53;96875.66;4095268;34;20535;-87
2022/01/27 01:54:15;;;;;;;;;;;-4.20;82.50;;;-5.82;78.87;96873.97;4117649;34;20209;-88
2022/01/27 01:56:44;;;;;;;;;;;-4.20;82.50;;;-5.82;78.50;96857.97;4117802;34;19917;-85
2022/01/27 01:59:14;;;;;;;;;;;-4.20;82.40;;;-5.81;78.56;96870.31;4095385;34;19927;-87
2022/01/27 02:01:43;;;;;;;;;;;-4.20;82.50;;;-5.81;78.62;96875.66;4094555;34;19910;-87
2022/01/27 02:04:12;;;;;;;;;;;-4.20;82.50;;;-5.85;78.75;96859.13;4115882;34;20201;-87
2022/01/27 02:06:46;;;;;;;;;;;-4.20;82.40;;;-5.81;78.68;96876.50;4115452;34;20210;-87
2022/01/27 02:09:24;;;;;;;;;;;-4.20;82.40;;;-5.82;78.21;96876.66;4115272;34;19910;-87
2022/01/27 02:20:13;;;;;;;;;;;-4.20;82.30;;;-5.82;78.75;96872.16;4094833;34;20251;-88
2022/01/27 02:22:42;;;;;;;;;;;-4.20;82.40;;;-5.81;78.50;96870.31;4092262;34;20195;-87
2022/01/27 02:25:11;;;;;;;;;;;-4.20;82.40;;;-5.80;78.43;96866.69;4114858;34;19903;-88
2022/01/27 02:27:40;;;;;;;;;;;-4.20;82.40;;;-5.81;78.54;96871.19;4091701;34;19907;-88
2022/01/27 02:30:09;;;;;;;;;;;-4.10;82.50;;;-5.80;78.36;96872.00;4114941;34;20116;-87
2022/01/27 02:32:37;;;;;;;;;;;-4.20;82.40;;;-5.81;78.75;96875.66;4138148;33;20115;-87
2022/01/27 02:35:07;;;;;;;;;;;-4.20;82.40;;;-5.79;78.56;96881.69;4088479;34;20206;-88
2022/01/27 02:37:37;;;;;;;;;;;-4.20;82.30;;;-5.80;78.72;96866.69;4110364;34;20365;-88
2022/01/27 02:40:07;;;;;;;;;;;-4.20;82.30;;;-5.80;78.57;96875.50;4088428;34;20524;-88
2022/01/27 02:42:36;;;;;;;;;;;-4.20;82.40;;;-5.81;78.50;96865.84;4087111;34;19910;-87
2022/01/27 02:45:09;;;;;;;;;;;-4.20;82.30;;;-5.81;78.52;96873.00;4087758;34;20522;-88
2022/01/27 02:47:37;;;;;;;;;;;-4.20;82.30;;;-5.81;78.73;96865.84;4109580;34;20508;-88
2022/01/27 02:50:07;;;;;;;;;;;-4.20;82.30;;;-5.80;78.67;96861.34;4087333;34;20234;-87
2022/01/27 02:52:38;;;;;;;;;;;-4.20;82.40;;;-5.80;78.47;96872.00;4087344;34;19910;-88
2022/01/27 02:55:08;;;;;;;;;;;-4.20;82.40;;;-5.80;79.03;96872.84;4087680;34;20217;-88
2022/01/27 02:57:37;;;;;;;;;;;-4.20;82.40;;;-5.80;78.65;96858.69;4088634;34;20223;-87
2022/01/27 03:00:07;;;;;;;;;;;-4.20;82.40;;;-5.80;78.76;96858.69;4112287;34;19904;-88
2022/01/27 03:02:40;;;;;;;;;;;-4.20;82.40;;;-5.82;78.60;96852.66;4095123;34;19903;-87
2022/01/27 03:05:13;;;;;;;;;;;-4.20;82.40;;;-5.80;78.61;96864.84;4117294;34;20206;-88
2022/01/27 03:07:48;;;;;;;;;;;-4.20;82.40;;;-5.80;78.81;96862.16;4094711;34;19907;-87
2022/01/27 03:11:15;;;;;;;;;;;-4.20;82.40;;;-5.81;78.68;96857.84;4094668;34;20195;-87
2022/01/27 03:13:44;;;;;;;;;;;-4.20;82.40;;;-5.79;78.58;96857.69;4092118;34;20531;-88
2022/01/27 03:16:13;;;;;;;;;;;-4.20;82.40;;;-5.78;78.38;96859.38;4064353;34;19911;-88
2022/01/27 03:18:42;;;;;;;;;;;-4.20;82.30;;;-5.79;78.49;96852.34;4108742;34;19907;-86
2022/01/27 03:21:14;;;;;;;;;;;-4.20;82.40;;;-5.79;78.55;96847.03;4108141;34;20224;-87
2022/01/27 03:23:44;;;;;;;;;;;-4.20;82.30;;;-5.79;78.65;96857.69;4087585;34;19903;-87
2022/01/27 03:26:15;;;;;;;;;;;-4.20;82.40;;;-5.82;78.57;96852.66;4109684;34;20213;-87
2022/01/27 03:28:47;;;;;;;;;;;-4.20;82.40;;;-5.79;78.54;96863.03;4096834;34;20207;-87
2022/01/27 03:31:24;;;;;;;;;;;-4.20;82.30;;;-5.79;78.41;96858.50;4108545;33;19918;-87
2022/01/27 03:33:54;;;;;;;;;;;-4.10;82.40;;;-5.78;78.71;96862.03;4086423;34;20209;-87
2022/01/27 03:36:28;;;;;;;;;;;-4.20;82.30;;;-5.82;78.55;96852.66;4109169;33;20223;-88
2022/01/27 03:38:59;;;;;;;;;;;-4.20;82.30;;;-5.81;78.55;96859.66;4087573;34;20194;-88
2022/01/27 03:41:32;;;;;;;;;;;-4.20;82.30;;;-5.78;78.56;96862.03;4136459;33;20213;-87
2022/01/27 03:44:02;;;;;;;;;;;-4.20;82.30;;;-5.79;78.43;96855.84;4114004;34;20238;-88
2022/01/27 03:46:34;;;;;;;;;;;-4.20;82.30;;;-5.79;78.94;96853.19;4091237;34;19911;-88
2022/01/27 03:49:06;;;;;;;;;;;-4.20;82.30;;;-5.79;78.52;96853.19;4091580;34;19907;-87
2022/01/27 03:55:51;;;;;;;;;;;-4.20;82.30;;;-5.79;78.45;96861.19;4112134;34;20174;-87
2022/01/27 03:58:22;;;;;;;;;;;-4.10;82.50;;;-5.79;78.22;96860.34;4111451;34;19903;-88
2022/01/27 04:00:55;;;;;;;;;;;-4.10;82.50;;;-5.78;78.05;96859.38;4082641;34;20202;-87
2022/01/27 04:03:28;;;;;;;;;;;-4.20;82.30;;;-5.79;78.28;96863.03;4082513;34;20201;-87
2022/01/27 04:06:05;;;;;;;;;;;-4.20;82.40;;;-5.76;78.74;96868.06;4080350;34;20212;-87
2022/01/27 04:08:42;;;;;;;;;;;-4.20;82.40;;;-5.79;78.67;96857.69;4081949;34;19910;-88
2022/01/27 04:11:13;;;;;;;;;;;-4.20;82.30;;;-5.78;78.66;96859.38;4106039;33;19911;-87
2022/01/27 04:13:42;;;;;;;;;;;-4.20;82.30;;;-5.78;78.48;96867.38;4083443;34;19915;-87
2022/01/27 04:16:12;;;;;;;;;;;-4.20;82.30;;;-5.79;78.83;96850.50;4078085;34;20206;-87
2022/01/27 04:18:45;;;;;;;;;;;-4.10;82.40;;;-5.79;78.50;96857.69;4100635;34;19903;-88
2022/01/27 04:21:18;;;;;;;;;;;-4.20;82.30;;;-5.81;78.47;96859.66;4083234;34;20223;-86
2022/01/27 04:23:49;;;;;;;;;;;-4.20;82.30;;;-5.78;78.71;96867.38;4083120;34;19903;-87
2022/01/27 04:26:26;;;;;;;;;;;-4.20;82.30;;;-5.76;79.06;96868.06;4081928;34;20186;-88
2022/01/27 04:29:02;;;;;;;;;;;-4.20;82.40;;;-5.77;78.63;96861.03;4105238;34;19903;-87
2022/01/27 04:31:38;;;;;;;;;;;-4.10;82.50;;;-5.78;78.70;96862.03;4094457;34;19911;-87
2022/01/27 04:34:13;;;;;;;;;;;-4.20;82.30;;;-5.79;78.62;96863.84;4085894;34;19907;-88
2022/01/27 04:36:47;;;;;;;;;;;-4.20;82.30;;;-5.78;78.32;96856.69;4107922;34;19903;-87
2022/01/27 04:39:24;;;;;;;;;;;-4.10;82.40;;;-5.78;78.02;96857.53;4086928;34;19910;-87
2022/01/27 04:42:11;;;;;;;;;;;-4.10;82.50;;;-5.79;78.67;96863.03;4115795;34;19903;-87
2022/01/27 04:44:50;;;;;;;;;;;-4.10;82.40;;;-5.78;78.71;96854.84;4114209;34;19910;-88
2022/01/27 04:47:30;;;;;;;;;;;-4.10;83.20;;;-5.76;78.89;96862.72;4092440;34;20234;-88
2022/01/27 04:50:03;;;;;;;;;;;-4.10;83.20;;;-5.78;78.20;96862.84;4091680;34;20230;-87
2022/01/27 04:52:43;;;;;;;;;;;-4.10;82.40;;;-5.78;78.56;96868.19;4092416;34;20554;-87
2022/01/27 04:55:15;;;;;;;;;;;-4.20;82.30;;;-5.78;78.58;96867.38;4114760;34;20598;-87
2022/01/27 04:57:54;;;;;;;;;;;-4.10;82.40;;;-5.76;78.55;96865.38;4119432;34;20205;-87
2022/01/27 05:00:32;;;;;;;;;;;-4.10;82.40;;;-5.78;78.44;96867.38;4117133;34;19910;-88
2022/01/27 05:03:49;;;;;;;;;;;-4.20;82.30;;;-5.78;78.43;96865.53;4093862;34;19911;-88
2022/01/27 05:06:44;;;;;;;;;;;-4.20;82.20;;;-5.76;78.58;96870.72;4093824;34;19910;-88
2022/01/27 05:09:27;;;;;;;;;;;-4.10;82.40;;;-5.76;78.29;96878.72;4116666;34;20196;-87
2022/01/27 05:12:09;;;;;;;;;;;-4.10;82.40;;;-5.77;78.06;96872.53;4093434;34;20589;-88
2022/01/27 05:14:41;;;;;;;;;;;-4.20;83.10;;;-5.75;78.50;96875.06;4117258;34;20206;-87
2022/01/27 05:17:18;;;;;;;;;;;-4.20;82.20;;;-5.78;78.62;96873.53;4115549;33;20222;-87
2022/01/27 05:19:51;;;;;;;;;;;-4.10;82.40;;;-5.76;78.46;96868.88;4115878;34;19904;-87
2022/01/27 05:22:24;;;;;;;;;;;-4.20;82.30;;;-5.76;78.44;96873.41;4105129;34;20211;-87
2022/01/27 05:25:01;;;;;;;;;;;-4.10;82.40;;;-5.76;78.67;96876.06;4093602;34;19911;-87
2022/01/27 05:27:40;;;;;;;;;;;-4.20;82.20;;;-5.76;78.52;96868.88;4101813;34;20351;-88
2022/01/27 05:30:18;;;;;;;;;;;-4.10;82.40;;;-5.76;78.22;96870.72;4092649;34;20144;-87
2022/01/27 05:32:49;;;;;;;;;;;-4.10;82.50;;;-5.76;78.73;96873.41;4094318;34;19903;-87
2022/01/27 05:35:24;;;;;;;;;;;-4.10;82.40;;;-5.76;78.51;96868.88;4115262;34;20198;-87
2022/01/27 05:38:03;;;;;;;;;;;-4.20;82.20;;;-5.75;78.42;96869.75;4108294;34;20199;-87
2022/01/27 05:40:33;;;;;;;;;;;-4.10;82.40;;;-5.76;78.34;96882.22;4115813;34;20227;-87
2022/01/27 05:43:12;;;;;;;;;;;-4.20;82.30;;;-5.75;78.34;96877.75;4120536;33;19904;-87
2022/01/27 05:46:02;;;;;;;;;;;-4.10;82.40;;;-5.75;78.42;96875.06;4093125;34;19903;-87
2022/01/27 05:48:35;;;;;;;;;;;-4.10;82.40;;;-5.75;78.34;96880.41;4093483;34;19903;-87
2022/01/27 05:51:07;;;;;;;;;;;-4.10;82.40;;;-5.75;78.70;96877.75;4092606;34;20622;-87
2022/01/27 05:53:39;;;;;;;;;;;-4.10;82.40;;;-5.75;78.43;96881.22;4139686;33;20220;-87
2022/01/27 05:56:08;;;;;;;;;;;-4.10;82.40;;;-5.76;78.14;96878.72;4092079;34;19907;-87
2022/01/27 05:58:36;;;;;;;;;;;-4.10;82.40;;;-5.75;78.56;96875.06;4092456;34;20209;-88
2022/01/27 06:01:06;;;;;;;;;;;-4.20;82.20;;;-5.75;78.55;96872.41;4092430;34;19926;-88
2022/01/27 06:03:34;;;;;;;;;;;-4.10;82.40;;;-5.77;78.20;96861.03;4115372;34;19910;-87
2022/01/27 06:06:03;;;;;;;;;;;-4.20;82.30;;;-5.76;78.42;96857.41;4092540;34;20239;-87
2022/01/27 06:08:31;;;;;;;;;;;-4.20;82.30;;;-5.78;78.30;96862.03;4114946;34;19903;-88
2022/01/27 06:11:00;;;;;;;;;;;-4.10;82.40;;;-5.74;78.66;96871.38;4113272;34;20197;-88
2022/01/27 06:13:28;;;;;;;;;;;-4.20;82.30;;;-5.74;78.05;96871.38;4113380;34;19903;-87
2022/01/27 06:15:57;;;;;;;;;;;-4.10;82.40;;;-5.78;78.66;96868.19;4112846;34;20590;-87
2022/01/27 06:18:27;;;;;;;;;;;-4.10;82.40;;;-5.73;78.64;96878.41;4090204;34;19910;-87
2022/01/27 06:21:00;;;;;;;;;;;-4.10;82.40;;;-5.76;78.31;96874.22;4113724;34;20104;-86
2022/01/27 06:23:28;;;;;;;;;;;-4.10;82.40;;;-5.76;78.48;96868.06;4090087;34;20199;-87
2022/01/27 06:25:57;;;;;;;;;;;-4.20;82.20;;;-5.76;78.36;96868.88;4112567;34;20223;-87
2022/01/27 06:28:25;;;;;;;;;;;-4.10;82.30;;;-5.73;78.58;96870.41;4091444;34;19903;-88
2022/01/27 06:30:54;;;;;;;;;;;-4.10;82.40;;;-5.73;78.47;96873.91;4092581;34;20588;-87
2022/01/27 06:33:23;;;;;;;;;;;-4.10;82.40;;;-5.74;78.09;96879.38;4115551;34;20220;-87
2022/01/27 06:35:53;;;;;;;;;;;-4.10;82.40;;;-5.72;78.13;96886.28;4092694;34;19903;-87
2022/01/27 06:38:21;;;;;;;;;;;-4.10;82.40;;;-5.74;78.58;96874.06;4115306;34;20200;-87
2022/01/27 06:40:50;;;;;;;;;;;-4.10;82.40;;;-5.72;78.54;96885.41;4092934;34;19910;-87
2022/01/27 06:43:18;;;;;;;;;;;-4.10;82.30;;;-5.72;78.33;96890.75;4094385;34;20533;-87
2022/01/27 06:45:47;;;;;;;;;;;-4.10;82.30;;;-5.72;78.75;96880.94;4117935;34;19927;-87
2022/01/27 06:48:15;;;;;;;;;;;-4.10;82.40;;;-5.72;78.38;96885.41;4115716;34;20214;-87
2022/01/27 06:50:46;;;;;;;;;;;-4.10;82.30;;;-5.71;78.13;96887.09;4117098;34;19903;-87
2022/01/27 06:53:15;;;;;;;;;;;-4.10;82.30;;;-5.73;78.28;96886.41;4119729;33;20229;-87
2022/01/27 06:55:44;;;;;;;;;;;-4.10;83.10;;;-5.71;78.34;96887.09;4090309;34;20190;-87
2022/01/27 06:58:12;;;;;;;;;;;-4.10;82.30;;;-5.73;78.42;96881.91;4110305;34;19910;-88
2022/01/27 07:00:41;;;;;;;;;;;-4.10;82.30;;;-5.70;78.47;96888.78;4085326;34;20212;-86
2022/01/27 07:03:09;;;;;;;;;;;-4.10;82.30;;;-5.70;78.91;96899.44;4083945;34;19904;-89
2022/01/27 07:05:39;;;;;;;;;;;-4.10;82.20;;;-5.70;78.40;96894.09;4083824;34;20197;-88
2022/01/27 07:08:08;;;;;;;;;;;-4.10;82.30;;;-5.72;78.27;96891.59;4128972;33;20204;-88
2022/01/27 07:10:38;;;;;;;;;;;-4.10;82.20;;;-5.73;78.46;96884.59;4129280;33;19910;-88
2022/01/27 07:13:06;;;;;;;;;;;-4.10;82.20;;;-5.72;78.37;96891.59;4104301;34;20241;-89
2022/01/27 07:15:35;;;;;;;;;;;-4.10;82.20;;;-5.69;78.35;96890.44;4104047;34;20255;-88
2022/01/27 07:18:04;;;;;;;;;;;-4.10;82.20;;;-5.71;78.28;96887.09;4080947;34;19914;-88
2022/01/27 07:20:32;;;;;;;;;;;-4.10;82.20;;;-5.69;78.52;96885.13;4081043;34;20220;-88
2022/01/27 07:23:01;;;;;;;;;;;-4.10;82.20;;;-5.72;78.48;96877.41;4081575;34;20211;-88
2022/01/27 07:25:29;;;;;;;;;;;-4.10;82.20;;;-5.68;78.69;96885.97;4081469;34;20212;-89
2022/01/27 07:27:59;;;;;;;;;;;-4.10;82.20;;;-5.68;78.34;96876.13;4079897;34;20573;-90
2022/01/27 07:30:28;;;;;;;;;;;-4.10;82.20;;;-5.70;78.60;96870.09;4103565;34;20593;-88
2022/01/27 07:32:56;;;;;;;;;;;-4.10;82.20;;;-5.68;78.47;96878.78;4102229;34;19904;-88
2022/01/27 07:35:25;;;;;;;;;;;-4.00;82.20;;;-5.66;78.45;96884.81;4102587;34;20249;-89
2022/01/27 07:37:54;;;;;;;;;;;-4.10;82.10;;;-5.66;78.67;96876.81;4081304;34;19911;-88
2022/01/27 07:40:22;;;;;;;;;;;-4.00;82.20;;;-5.66;78.52;96884.81;4104851;34;20476;-89
2022/01/27 07:42:51;;;;;;;;;;;-4.00;82.20;;;-5.65;78.39;96888.31;4105710;34;20230;-89
2022/01/27 07:45:21;;;;;;;;;;;-4.10;82.10;;;-5.68;78.38;96876.13;4082672;34;19907;-89
2022/01/27 07:47:50;;;;;;;;;;;-4.00;82.00;;;-5.65;77.96;96886.50;4082275;34;19907;-89
2022/01/27 07:50:18;;;;;;;;;;;-4.00;82.00;;;-5.66;78.06;96879.50;4111996;34;20735;-89
2022/01/27 07:52:47;;;;;;;;;;;-4.00;82.00;;;-5.64;78.24;96888.19;4088752;34;20282;-89
2022/01/27 07:55:15;;;;;;;;;;;-4.00;82.00;;;-5.64;78.38;96882.84;4088402;34;20543;-88
2022/01/27 07:57:44;;;;;;;;;;;-4.00;82.00;;;-5.63;78.43;96878.34;4082864;34;20216;-86
2022/01/27 08:00:14;;;;;;;;;;;-4.00;82.00;;;-5.63;78.19;96873.00;4087494;34;20203;-86
2022/01/27 08:02:45;;;;;;;;;;;-4.00;82.10;;;-5.63;77.86;96876.53;4111758;34;19910;-88
2022/01/27 08:05:13;;;;;;;;;;;-4.00;82.00;;;-5.64;78.23;96877.50;4089257;34;19914;-88
2022/01/27 08:07:42;;;;;;;;;;;-4.00;82.00;;;-5.64;78.14;96877.50;4114386;34;20234;-88
2022/01/27 08:10:10;;;;;;;;;;;-4.00;82.00;;;-5.63;78.03;96873.84;4091931;34;20237;-88
2022/01/27 08:12:42;;;;;;;;;;;-4.00;82.00;;;-5.65;77.91;96870.50;4092189;34;20236;-88
2022/01/27 08:15:11;;;;;;;;;;;-4.00;81.90;;;-5.61;78.20;96877.19;4135065;33;19903;-88
2022/01/27 08:17:41;;;;;;;;;;;-4.00;82.00;;;-5.61;78.10;96882.53;4086376;34;20507;-88
2022/01/27 08:20:12;;;;;;;;;;;-4.00;81.90;;;-5.60;78.30;96883.38;4114563;34;20190;-88
2022/01/27 08:22:43;;;;;;;;;;;-4.00;81.90;;;-5.60;77.84;96881.53;4114301;34;20086;-87
2022/01/27 08:25:11;;;;;;;;;;;-4.00;81.90;;;-5.60;78.17;96876.19;4091846;34;20125;-87
2022/01/27 08:27:43;;;;;;;;;;;-4.00;82.70;;;-5.58;78.13;96876.06;4091599;34;20192;-87
2022/01/27 08:30:16;;;;;;;;;;;-4.00;81.80;;;-5.57;78.37;96878.56;4092563;34;20542;-88
2022/01/27 08:32:50;;;;;;;;;;;-4.00;81.70;;;-5.58;78.09;96882.22;4117752;34;20126;-87
2022/01/27 08:35:36;;;;;;;;;;;-4.00;81.70;;;-5.57;78.16;96878.56;4094110;34;20219;-89
2022/01/27 08:38:04;;;;;;;;;;;-4.00;81.70;;;-5.56;78.11;96885.59;4116492;34;20197;-88
2022/01/27 08:40:33;;;;;;;;;;;-4.00;81.70;;;-5.56;77.90;96876.75;4116814;34;19903;-88
2022/01/27 08:43:01;;;;;;;;;;;-3.90;81.80;;;-5.53;77.86;96886.28;4116184;34;20440;-88
2022/01/27 08:45:30;;;;;;;;;;;-3.90;81.80;;;-5.56;77.87;96888.25;4093484;34;20130;-89
2022/01/27 08:47:59;;;;;;;;;;;-3.90;81.70;;;-5.55;77.98;96887.25;4093593;34;19926;-88
2022/01/27 08:50:29;;;;;;;;;;;-3.90;81.70;;;-5.52;78.00;96890.63;4115695;34;19910;-88
2022/01/27 08:52:57;;;;;;;;;;;-3.90;81.70;;;-5.53;77.82;96886.28;4093060;34;19910;-88
2022/01/27 08:55:26;;;;;;;;;;;-3.90;81.70;;;-5.51;78.05;96886.97;4093479;34;20492;-88
2022/01/27 08:57:55;;;;;;;;;;;-3.90;81.70;;;-5.51;78.07;96892.31;4116177;34;19910;-88
2022/01/27 09:00:23;;;;;;;;;;;-3.90;81.70;;;-5.50;77.81;96896.66;4117609;34;20202;-88
2022/01/27 09:02:52;;;;;;;;;;;-3.90;81.60;;;-5.49;77.97;96895.66;4093228;34;20219;-88
2022/01/27 09:05:20;;;;;;;;;;;-3.90;81.60;;;-5.49;78.10;96890.31;4091672;34;20088;-88
2022/01/27 09:07:55;;;;;;;;;;;-3.90;81.60;;;-5.52;77.91;96879.94;4113833;34;19964;-88
2022/01/27 09:10:31;;;;;;;;;;;-3.90;81.60;;;-5.49;78.07;96891.16;4091838;34;19903;-88
2022/01/27 09:13:00;;;;;;;;;;;-3.90;81.60;;;-5.49;77.79;96872.47;4136740;33;19907;-89
2022/01/27 09:15:29;;;;;;;;;;;-3.90;81.60;;;-5.50;77.84;96867.31;4093784;34;20223;-88
2022/01/27 09:17:59;;;;;;;;;;;-3.90;81.60;;;-5.47;77.80;96888.31;4115622;34;20199;-89
2022/01/27 09:20:27;;;;;;;;;;;-3.90;81.50;;;-5.46;77.95;96892.66;4116395;34;19910;-88
2022/01/27 09:23:00;;;;;;;;;;;-3.80;81.50;;;-5.47;77.64;96889.16;4093118;34;20569;-88
2022/01/27 09:25:39;;;;;;;;;;;-3.90;81.50;;;-5.46;77.85;96879.31;4095361;34;19903;-88
2022/01/27 09:28:08;;;;;;;;;;;-3.90;81.40;;;-5.45;77.96;96886.34;4094546;34;20203;-88
2022/01/27 09:30:37;;;;;;;;;;;-3.90;81.40;;;-5.49;77.75;96871.66;4095053;34;19911;-88
2022/01/27 09:33:05;;;;;;;;;;;-3.80;81.40;;;-5.45;77.98;96875.66;4115590;34;20211;-88
2022/01/27 09:35:34;;;;;;;;;;;-3.80;81.50;;;-5.45;77.57;96865.84;4116603;34;19903;-88
2022/01/27 09:38:04;;;;;;;;;;;-3.80;81.40;;;-5.45;77.52;96870.34;4118122;34;20195;-88
2022/01/27 09:40:35;;;;;;;;;;;-3.80;81.40;;;-5.49;77.69;96859.13;4115945;34;20198;-88
2022/01/27 09:43:04;;;;;;;;;;;-3.80;81.40;;;-5.45;77.87;96865.84;4114458;34;19918;-88
2022/01/27 09:45:37;;;;;;;;;;;-3.80;81.40;;;-5.45;77.65;96865.84;4089900;34;20057;-88
2022/01/27 09:48:12;;;;;;;;;;;-3.80;81.40;;;-5.44;78.03;96861.34;4112441;34;20559;-88
2022/01/27 09:50:59;;;;;;;;;;;-3.80;81.30;;;-5.43;77.71;96871.03;4112336;34;20209;-88
2022/01/27 09:53:30;;;;;;;;;;;-3.80;81.40;;;-5.43;77.55;96868.34;4112237;34;19914;-87
2022/01/27 09:55:58;;;;;;;;;;;-3.80;81.30;;;-5.43;77.71;96863.00;4111251;34;19910;-88
2022/01/27 09:58:27;;;;;;;;;;;-3.80;81.40;;;-5.43;78.26;96857.69;4111707;34;20332;-88
2022/01/27 10:00:56;;;;;;;;;;;-3.80;81.40;;;-5.43;77.53;96853.19;4111411;34;20206;-88
2022/01/27 10:03:28;;;;;;;;;;;-3.80;81.40;;;-5.42;77.89;96846.03;4088807;34;20206;-89
2022/01/27 10:06:10;;;;;;;;;;;-3.80;81.40;;;-5.44;77.66;96834.66;4088663;34;19903;-88
2022/01/27 10:08:41;;;;;;;;;;;-3.80;81.30;;;-5.42;77.58;96838.00;4111955;34;20208;-88
2022/01/27 10:11:14;;;;;;;;;;;-3.80;81.20;;;-5.41;77.78;96826.34;4111343;33;20232;-89
2022/01/27 10:13:45;;;;;;;;;;;-3.80;81.30;;;-5.39;77.76;96827.03;4111690;34;19929;-88
2022/01/27 10:16:28;;;;;;;;;;;-3.70;81.40;;;-5.40;77.88;96814.69;4111170;34;20152;-88
2022/01/27 10:19:05;;;;;;;;;;;-3.80;81.30;;;-5.37;77.84;96809.06;4089247;34;19910;-88
2022/01/27 10:21:34;;;;;;;;;;;-3.80;81.30;;;-5.39;77.61;96814.53;4111436;34;19911;-89
2022/01/27 10:24:16;;;;;;;;;;;-3.80;81.30;;;-5.37;77.88;96811.72;4091597;34;19907;-86
2022/01/27 10:26:52;;;;;;;;;;;-3.70;81.40;;;-5.36;77.48;96816.06;4113752;34;20238;-88
2022/01/27 10:29:35;;;;;;;;;;;-3.70;81.40;;;-5.34;77.46;96819.38;4090947;34;19903;-88
2022/01/27 10:32:06;;;;;;;;;;;-3.70;81.30;;;-5.34;77.55;96816.72;4091787;34;20209;-87
2022/01/27 10:34:55;;;;;;;;;;;-3.70;81.30;;;-5.33;77.65;96815.72;4089771;34;19910;-87
2022/01/27 10:37:24;;;;;;;;;;;-3.70;81.20;;;-5.32;77.54;96816.59;4135843;33;20207;-87
2022/01/27 10:39:54;;;;;;;;;;;-3.70;81.20;;;-5.32;77.69;96817.41;4092415;34;19907;-87
2022/01/27 10:42:23;;;;;;;;;;;-3.70;81.10;;;-5.33;77.42;96814.91;4092036;34;19923;-87
2022/01/27 10:44:56;;;;;;;;;;;-3.70;81.20;;;-5.33;77.60;96805.06;4112385;34;20576;-88
2022/01/27 10:47:29;;;;;;;;;;;-3.70;81.20;;;-5.30;77.56;96809.25;4089349;34;19903;-88
2022/01/27 10:50:01;;;;;;;;;;;-3.60;81.10;;;-5.32;77.47;96795.25;4089390;34;20480;-88
2022/01/27 10:52:36;;;;;;;;;;;-3.70;81.10;;;-5.31;77.45;96797.75;4089781;34;20199;-88
2022/01/27 10:55:09;;;;;;;;;;;-3.70;81.00;;;-5.28;77.85;96800.09;4087382;34;19903;-88
2022/01/27 10:57:38;;;;;;;;;;;-3.70;81.10;;;-5.28;77.56;96800.09;4084137;34;19918;-88
2022/01/27 11:00:11;;;;;;;;;;;-3.70;81.10;;;-5.27;77.70;96804.44;4107338;34;20201;-88
2022/01/27 11:02:50;;;;;;;;;;;-3.70;82.00;;;-5.28;77.21;96802.78;4084640;34;20218;-88
2022/01/27 11:05:19;;;;;;;;;;;-3.70;81.00;;;-5.28;77.69;96808.09;4106363;34;20197;-87
2022/01/27 11:07:48;;;;;;;;;;;-3.70;81.00;;;-5.28;77.75;96809.91;4106080;34;20562;-88
2022/01/27 11:10:20;;;;;;;;;;;-3.70;81.00;;;-5.30;77.78;96810.09;4082838;33;19904;-88
2022/01/27 11:12:51;;;;;;;;;;;-3.70;81.10;;;-5.28;77.66;96810.78;4091714;34;20119;-88
2022/01/27 11:15:22;;;;;;;;;;;-3.70;81.10;;;-5.29;78.05;96801.09;4083463;34;20528;-87
2022/01/27 11:17:51;;;;;;;;;;;-3.70;81.10;;;-5.29;77.59;96811.75;4101311;34;19911;-88
2022/01/27 11:20:26;;;;;;;;;;;-3.70;81.20;;;-5.29;77.76;96803.75;4076442;34;20598;-88
2022/01/27 11:23:22;;;;;;;;;;;-3.70;81.20;;;-5.29;77.42;96798.41;4076594;34;19911;-88
2022/01/27 11:25:55;;;;;;;;;;;-3.60;81.30;;;-5.29;77.78;96795.75;4099903;33;20206;-88
2022/01/27 11:28:24;;;;;;;;;;;-3.70;81.30;;;-5.30;77.93;96803.94;4078306;34;19903;-88
2022/01/27 11:31:16;;;;;;;;;;;-3.70;81.20;;;-5.27;77.58;96809.78;4078356;34;19910;-88
2022/01/27 11:33:46;;;;;;;;;;;-3.70;81.20;;;-5.27;77.45;96807.13;4078773;34;19914;-88
2022/01/27 11:49:59;;;;;;;;;;;-3.60;81.20;;;-5.28;77.87;96789.44;4018559;34;20211;-88
2022/01/27 11:52:30;;;;;;;;;;;-3.60;81.20;;;-5.27;77.78;96777.75;4083590;34;20207;-88
2022/01/27 11:55:14;;;;;;;;;;;-3.70;81.20;;;-5.27;77.34;96775.09;4113636;33;20459;-88
2022/01/27 11:57:44;;;;;;;;;;;-3.70;81.30;;;-5.26;77.74;96759.91;4135150;33;19903;-88
2022/01/27 12:00:16;;;;;;;;;;;-3.70;81.30;;;-5.27;77.86;96753.75;4090419;34;19986;-88
2022/01/27 12:03:14;;;;;;;;;;;-3.60;81.40;;;-5.24;77.65;96760.59;4110260;33;20225;-89
2022/01/27 12:05:46;;;;;;;;;;;-3.60;81.30;;;-5.24;77.53;96764.09;4087236;34;20201;-89
2022/01/27 12:08:25;;;;;;;;;;;-3.60;81.20;;;-5.21;77.84;96754.94;4094316;34;20206;-88
2022/01/27 12:10:57;;;;;;;;;;;-3.60;81.20;;;-5.21;77.67;96749.59;4114365;34;20197;-88
2022/01/27 12:18:34;;;;;;;;;;;-3.50;81.30;;;-5.16;77.49;96752.63;4116298;34;19906;-88
2022/01/27 12:21:35;;;;;;;;;;;-3.60;81.00;;;-5.16;77.49;96739.28;4081253;34;20014;-88
2022/01/27 12:24:22;;;;;;;;;;;-3.50;81.20;;;-5.14;77.44;96739.13;4091217;34;20214;-88
2022/01/27 12:26:55;;;;;;;;;;;-3.50;82.00;;;-5.15;77.55;96732.94;4107352;34;19903;-88
2022/01/27 12:33:29;;;;;;;;;;;-3.50;81.00;;;-5.13;77.77;96720.28;4116229;34;19910;-89
2022/01/27 12:35:57;;;;;;;;;;;-3.50;81.10;;;-5.16;77.54;96717.09;4085499;34;20204;-88